Time;durP1;ratioP1;P1;durP2;ratioP2;P2;SDS_P1;SDS_P2;PMS_P1;PMS_P2;Temp;Humidity;BMP_temperature;BMP_pressure;BME280_temperature;BME280_humidity;BME280_pressure;Samples;Min_cycle;Max_cycle;Signal;HPM_P1;HPM_P2
2023/01/24 00:01:03;;;;;;;3.63;3.33;;;;;;;;;;5078523;28;20200;-62
2023/01/24 00:03:32;;;;;;;3.70;3.40;;;;;;;;;;5078591;28;20210;-63
2023/01/24 00:06:00;;;;;;;4.03;3.63;;;;;;;;;;5078444;28;20544;-63
2023/01/24 00:08:28;;;;;;;4.05;3.70;;;;;;;;;;5078408;28;20228;-63
2023/01/24 00:11:02;;;;;;;3.97;3.58;;;;;;;;;;5078780;28;20204;-63
2023/01/24 00:13:30;;;;;;;3.80;3.50;;;;;;;;;;5077825;28;20264;-62
2023/01/24 00:16:04;;;;;;;3.95;3.65;;;;;;;;;;5077841;28;20204;-62
2023/01/24 00:18:34;;;;;;;3.83;3.50;;;;;;;;;;5078701;28;20213;-62
2023/01/24 00:21:02;;;;;;;3.97;3.67;;;;;;;;;;5078480;28;20260;-62
2023/01/24 00:23:30;;;;;;;4.15;3.80;;;;;;;;;;5078178;28;20200;-63
2023/01/24 00:25:57;;;;;;;3.90;3.50;;;;;;;;;;5078276;28;20250;-62
2023/01/24 00:28:25;;;;;;;4.15;3.75;;;;;;;;;;5078657;28;20230;-62
2023/01/24 00:30:53;;;;;;;4.15;3.78;;;;;;;;;;5097244;28;20236;-62
2023/01/24 00:33:20;;;;;;;3.83;3.53;;;;;;;;;;5098679;28;20322;-63
2023/01/24 00:35:51;;;;;;;3.75;3.45;;;;;;;;;;5098726;28;20203;-62
2023/01/24 00:38:19;;;;;;;3.78;3.47;;;;;;;;;;5098442;28;20231;-62
2023/01/24 00:40:46;;;;;;;4.03;3.63;;;;;;;;;;5080092;28;20535;-63
2023/01/24 00:43:14;;;;;;;3.85;3.50;;;;;;;;;;5079774;28;20627;-62
2023/01/24 00:45:42;;;;;;;3.72;3.42;;;;;;;;;;5077642;28;20212;-62
2023/01/24 00:48:10;;;;;;;4.00;3.70;;;;;;;;;;5078014;28;20564;-63
2023/01/24 00:50:38;;;;;;;4.10;3.80;;;;;;;;;;5077903;28;20214;-64
2023/01/24 00:53:08;;;;;;;3.67;3.38;;;;;;;;;;5077776;28;20263;-63
2023/01/24 00:55:35;;;;;;;4.10;3.75;;;;;;;;;;5077931;28;20204;-63
2023/01/24 00:58:03;;;;;;;3.70;3.40;;;;;;;;;;5077999;28;20294;-63
2023/01/24 01:00:31;;;;;;;4.20;3.70;;;;;;;;;;5077553;28;20201;-63
2023/01/24 01:02:59;;;;;;;4.00;3.70;;;;;;;;;;5077664;28;20515;-63
2023/01/24 01:05:26;;;;;;;4.05;3.70;;;;;;;;;;5077881;28;20277;-63
2023/01/24 01:07:54;;;;;;;3.80;3.50;;;;;;;;;;5077094;28;20208;-63
2023/01/24 01:10:24;;;;;;;3.70;3.40;;;;;;;;;;5089758;28;20199;-63
2023/01/24 01:12:52;;;;;;;4.10;3.70;;;;;;;;;;5078960;28;20330;-64
2023/01/24 01:15:19;;;;;;;4.43;4.03;;;;;;;;;;5078015;28;20465;-63
2023/01/24 01:17:47;;;;;;;4.10;3.80;;;;;;;;;;5077752;28;20495;-62
2023/01/24 01:20:15;;;;;;;3.80;3.40;;;;;;;;;;5077747;28;20211;-63
2023/01/24 01:22:42;;;;;;;4.13;3.70;;;;;;;;;;5077557;28;20200;-63
2023/01/24 01:25:10;;;;;;;3.70;3.40;;;;;;;;;;5077407;28;20204;-62
2023/01/24 01:27:39;;;;;;;4.05;3.67;;;;;;;;;;5077505;28;20254;-62
2023/01/24 01:30:08;;;;;;;3.47;3.17;;;;;;;;;;5089462;28;20247;-62
2023/01/24 01:32:35;;;;;;;4.32;3.92;;;;;;;;;;5097597;28;20468;-62
2023/01/24 01:35:03;;;;;;;4.00;3.60;;;;;;;;;;5097628;28;20207;-62
2023/01/24 01:37:31;;;;;;;3.60;3.30;;;;;;;;;;5097347;28;20199;-62
2023/01/24 01:39:59;;;;;;;4.55;4.15;;;;;;;;;;5097482;28;20207;-63
2023/01/24 01:42:26;;;;;;;4.32;3.92;;;;;;;;;;5097350;28;20212;-62
2023/01/24 01:44:55;;;;;;;4.43;3.97;;;;;;;;;;5097785;28;20235;-62
2023/01/24 01:47:26;;;;;;;3.97;3.67;;;;;;;;;;5097817;28;20695;-63
2023/01/24 01:50:00;;;;;;;3.85;3.55;;;;;;;;;;5097120;28;20233;-64
2023/01/24 01:52:29;;;;;;;4.40;4.00;;;;;;;;;;5097126;28;20306;-62
2023/01/24 01:54:59;;;;;;;4.20;3.80;;;;;;;;;;5097700;28;20463;-63
2023/01/24 01:57:28;;;;;;;4.40;4.00;;;;;;;;;;5097859;28;20211;-63
2023/01/24 02:00:00;;;;;;;4.13;3.80;;;;;;;;;;5097548;28;20214;-62
2023/01/24 02:02:29;;;;;;;4.32;3.92;;;;;;;;;;5097362;28;20227;-63
2023/01/24 02:04:59;;;;;;;3.88;3.58;;;;;;;;;;5096297;28;20288;-63
2023/01/24 02:07:30;;;;;;;3.95;3.65;;;;;;;;;;5096054;28;20195;-63
2023/01/24 02:09:59;;;;;;;4.43;4.03;;;;;;;;;;5096375;28;20658;-63
2023/01/24 02:12:29;;;;;;;4.07;3.67;;;;;;;;;;5097368;28;20568;-63
2023/01/24 02:17:45;;;;;;;4.35;3.95;;;;;;;;;;5097134;28;20603;-63
2023/01/24 02:20:20;;;;;;;3.90;3.53;;;;;;;;;;5097274;28;20218;-63
2023/01/24 02:22:53;;;;;;;3.50;3.20;;;;;;;;;;5097475;28;20210;-62
2023/01/24 02:25:23;;;;;;;4.10;3.80;;;;;;;;;;5096787;28;20261;-63
2023/01/24 02:27:52;;;;;;;4.35;3.95;;;;;;;;;;5096585;28;20212;-62
2023/01/24 02:30:20;;;;;;;3.95;3.65;;;;;;;;;;5082454;28;20240;-62
2023/01/24 02:32:48;;;;;;;4.25;3.70;;;;;;;;;;5075481;28;20215;-62
2023/01/24 02:35:26;;;;;;;3.97;3.67;;;;;;;;;;5076230;28;20576;-62
2023/01/24 02:37:54;;;;;;;3.40;3.10;;;;;;;;;;5077957;28;20208;-62
2023/01/24 02:40:22;;;;;;;3.67;3.38;;;;;;;;;;5079596;28;20295;-62
2023/01/24 02:42:50;;;;;;;3.92;3.63;;;;;;;;;;5079504;28;20214;-62
2023/01/24 02:45:22;;;;;;;4.18;3.80;;;;;;;;;;5078774;28;20227;-62
2023/01/24 02:47:50;;;;;;;3.80;3.33;;;;;;;;;;5080092;28;20204;-62
2023/01/24 02:50:18;;;;;;;4.25;3.85;;;;;;;;;;5080235;28;20210;-62
2023/01/24 02:55:31;;;;;;;4.13;3.72;;;;;;;;;;5079941;28;20254;-62
2023/01/24 02:58:07;;;;;;;3.60;3.30;;;;;;;;;;5080093;28;20306;-62
2023/01/24 03:00:36;;;;;;;4.47;3.45;;;;;;;;;;5079988;28;20207;-62
2023/01/24 03:03:04;;;;;;;3.92;3.63;;;;;;;;;;5079899;28;20254;-62
2023/01/24 03:05:39;;;;;;;3.70;3.38;;;;;;;;;;5080351;28;20295;-62
2023/01/24 03:08:07;;;;;;;4.43;3.88;;;;;;;;;;5080069;28;20211;-62
2023/01/24 03:10:35;;;;;;;4.10;3.70;;;;;;;;;;5080315;28;20204;-63
2023/01/24 03:35:07;;;;;;;4.20;3.28;;;;;;;;;;5099498;28;20222;-63
2023/01/24 03:40:20;;;;;;;3.90;3.47;;;;;;;;;;5099633;28;20186;-62
2023/01/24 03:42:50;;;;;;;4.50;3.60;;;;;;;;;;5099687;28;20196;-62
2023/01/24 03:45:18;;;;;;;3.80;3.50;;;;;;;;;;5099446;28;20587;-63
2023/01/24 03:47:54;;;;;;;4.03;3.50;;;;;;;;;;5099420;28;20203;-63
2023/01/24 03:53:08;;;;;;;3.38;3.08;;;;;;;;;;5099082;28;20478;-63
2023/01/24 03:55:35;;;;;;;3.58;3.28;;;;;;;;;;5098863;28;20265;-62
2023/01/24 03:58:03;;;;;;;3.70;3.40;;;;;;;;;;5099056;28;20204;-63
2023/01/24 04:00:31;;;;;;;3.67;3.38;;;;;;;;;;5099137;28;20200;-62
2023/01/24 04:03:00;;;;;;;3.95;3.65;;;;;;;;;;5098861;28;20243;-62
2023/01/24 04:05:28;;;;;;;3.33;2.92;;;;;;;;;;5099400;28;20568;-63
2023/01/24 04:07:56;;;;;;;3.97;3.25;;;;;;;;;;5099584;28;20475;-63
2023/01/24 04:10:24;;;;;;;3.58;3.28;;;;;;;;;;5099099;28;20269;-63
2023/01/24 04:12:51;;;;;;;3.65;3.33;;;;;;;;;;5099073;28;20235;-63
2023/01/24 04:15:20;;;;;;;3.47;3.17;;;;;;;;;;5098423;28;20557;-63
2023/01/24 04:17:48;;;;;;;3.40;3.10;;;;;;;;;;5098564;28;20213;-62
2023/01/24 04:20:18;;;;;;;3.47;3.17;;;;;;;;;;5098557;28;20218;-63
2023/01/24 04:22:46;;;;;;;3.60;3.25;;;;;;;;;;5098029;28;20218;-63
2023/01/24 04:25:14;;;;;;;3.80;3.50;;;;;;;;;;5098578;28;20227;-63
2023/01/24 04:27:41;;;;;;;3.53;3.22;;;;;;;;;;5098551;28;20203;-63
2023/01/24 04:30:12;;;;;;;3.38;3.08;;;;;;;;;;5108327;28;20243;-63
2023/01/24 04:32:39;;;;;;;3.55;3.25;;;;;;;;;;5118992;28;20210;-63
2023/01/24 04:35:08;;;;;;;3.70;3.40;;;;;;;;;;5118442;28;20660;-63
2023/01/24 04:37:37;;;;;;;3.70;3.40;;;;;;;;;;5118446;28;20302;-63
2023/01/24 04:40:05;;;;;;;3.38;3.05;;;;;;;;;;5118558;28;20207;-63
2023/01/24 04:42:33;;;;;;;3.63;3.33;;;;;;;;;;5118418;28;20213;-63
2023/01/24 04:45:01;;;;;;;3.38;3.08;;;;;;;;;;5117954;28;20206;-63
2023/01/24 04:47:28;;;;;;;3.38;3.08;;;;;;;;;;5118932;28;20229;-63
2023/01/24 04:49:56;;;;;;;3.60;3.30;;;;;;;;;;5117100;28;20281;-62
2023/01/24 04:52:24;;;;;;;3.63;3.33;;;;;;;;;;5117468;28;20234;-62
2023/01/24 04:54:53;;;;;;;3.70;3.35;;;;;;;;;;5118242;28;20325;-62
2023/01/24 04:57:21;;;;;;;3.70;3.40;;;;;;;;;;5117668;28;20246;-63
2023/01/24 04:59:49;;;;;;;3.55;3.25;;;;;;;;;;5117479;28;20213;-62
2023/01/24 05:02:16;;;;;;;3.60;3.30;;;;;;;;;;5117412;28;20230;-62
2023/01/24 05:04:44;;;;;;;3.67;3.38;;;;;;;;;;5107806;28;20238;-62
2023/01/24 05:07:12;;;;;;;3.78;3.20;;;;;;;;;;5095647;28;20211;-63
2023/01/24 05:09:39;;;;;;;3.40;3.10;;;;;;;;;;5096679;28;20230;-63
2023/01/24 05:12:08;;;;;;;3.75;3.45;;;;;;;;;;5096466;28;20298;-62
2023/01/24 05:14:36;;;;;;;3.45;3.13;;;;;;;;;;5096603;28;20223;-62
2023/01/24 05:17:03;;;;;;;3.40;3.10;;;;;;;;;;5096717;28;20651;-62
2023/01/24 05:19:30;;;;;;;3.47;3.17;;;;;;;;;;5096399;28;20286;-62
2023/01/24 05:21:58;;;;;;;3.00;2.80;;;;;;;;;;5096614;28;20245;-62
2023/01/24 05:24:25;;;;;;;3.50;3.20;;;;;;;;;;5096110;28;20561;-62
2023/01/24 05:26:53;;;;;;;3.90;3.60;;;;;;;;;;5096107;28;20278;-62
2023/01/24 05:29:21;;;;;;;3.58;3.13;;;;;;;;;;5095719;28;20224;-63
2023/01/24 05:31:49;;;;;;;3.70;3.30;;;;;;;;;;5095307;28;20294;-62
2023/01/24 05:34:16;;;;;;;3.70;3.40;;;;;;;;;;5096260;28;20509;-62
2023/01/24 05:36:44;;;;;;;3.70;3.40;;;;;;;;;;5096092;28;20203;-62
2023/01/24 05:39:11;;;;;;;3.72;3.33;;;;;;;;;;5095733;28;20208;-62
2023/01/24 05:41:38;;;;;;;3.25;2.95;;;;;;;;;;5095198;28;20203;-62
2023/01/24 05:44:06;;;;;;;3.58;3.28;;;;;;;;;;5095036;28;20670;-62
2023/01/24 05:46:35;;;;;;;3.50;3.10;;;;;;;;;;5095581;28;20318;-62
2023/01/24 05:49:02;;;;;;;14.27;9.57;;;;;;;;;;5094657;28;20234;-62
2023/01/24 05:51:30;;;;;;;12.02;8.52;;;;;;;;;;5095339;28;20293;-62
2023/01/24 05:53:57;;;;;;;10.48;7.28;;;;;;;;;;5095285;28;20754;-62
2023/01/24 05:56:25;;;;;;;10.23;6.75;;;;;;;;;;5095124;28;20203;-62
2023/01/24 05:58:52;;;;;;;10.00;6.43;;;;;;;;;;5094973;28;20298;-63
2023/01/24 06:01:20;;;;;;;9.05;6.95;;;;;;;;;;5094868;28;20497;-64
2023/01/24 06:03:50;;;;;;;7.97;6.60;;;;;;;;;;5095663;28;20627;-63
2023/01/24 06:06:19;;;;;;;9.93;7.32;;;;;;;;;;5095247;28;20298;-63
2023/01/24 06:08:46;;;;;;;9.20;6.40;;;;;;;;;;5094751;28;20299;-64
2023/01/24 06:11:15;;;;;;;8.13;6.57;;;;;;;;;;5094293;28;20655;-63
2023/01/24 06:13:43;;;;;;;8.73;6.95;;;;;;;;;;5098159;28;20268;-62
2023/01/24 06:16:11;;;;;;;8.70;7.10;;;;;;;;;;5098303;28;20286;-63
2023/01/24 06:18:39;;;;;;;8.00;6.85;;;;;;;;;;5098280;28;20211;-62
2023/01/24 06:21:08;;;;;;;8.32;6.70;;;;;;;;;;5097998;28;20254;-62
2023/01/24 06:23:36;;;;;;;8.35;6.60;;;;;;;;;;5097741;28;20195;-63
2023/01/24 06:26:04;;;;;;;7.68;6.30;;;;;;;;;;5098840;28;20290;-63
2023/01/24 06:28:31;;;;;;;8.40;6.20;;;;;;;;;;5098647;28;20291;-62
2023/01/24 06:31:04;;;;;;;8.25;6.22;;;;;;;;;;5097843;28;20611;-62
2023/01/24 06:33:42;;;;;;;8.55;6.35;;;;;;;;;;5098494;28;20210;-63
2023/01/24 06:36:21;;;;;;;7.60;6.60;;;;;;;;;;5097899;28;20330;-62
2023/01/24 06:38:48;;;;;;;7.50;6.32;;;;;;;;;;5099021;28;20203;-62
2023/01/24 06:41:17;;;;;;;6.97;5.82;;;;;;;;;;5096865;28;20243;-62
2023/01/24 06:43:44;;;;;;;6.82;6.07;;;;;;;;;;5098748;28;20204;-62
2023/01/24 06:46:12;;;;;;;7.05;5.75;;;;;;;;;;5098237;28;20299;-63
2023/01/24 06:48:40;;;;;;;6.85;5.72;;;;;;;;;;5086019;28;20239;-62
2023/01/24 06:51:07;;;;;;;6.47;5.78;;;;;;;;;;5091328;28;20210;-62
2023/01/24 06:53:36;;;;;;;6.22;5.57;;;;;;;;;;5097999;28;20295;-62
2023/01/24 06:56:03;;;;;;;6.82;5.85;;;;;;;;;;5098207;28;20545;-62
2023/01/24 06:58:31;;;;;;;6.47;5.40;;;;;;;;;;5097099;28;20279;-62
2023/01/24 07:00:58;;;;;;;6.18;5.45;;;;;;;;;;5097893;28;20245;-62
2023/01/24 07:03:26;;;;;;;6.85;5.57;;;;;;;;;;5098017;28;20552;-61
2023/01/24 07:05:53;;;;;;;5.82;5.15;;;;;;;;;;5097446;28;20629;-62
2023/01/24 07:08:21;;;;;;;5.97;5.38;;;;;;;;;;5097749;28;20243;-63
2023/01/24 07:10:50;;;;;;;6.35;5.30;;;;;;;;;;5097439;28;20526;-62
2023/01/24 07:13:17;;;;;;;6.43;5.47;;;;;;;;;;5097623;28;20282;-63
2023/01/24 07:15:45;;;;;;;6.13;5.38;;;;;;;;;;5094600;28;20227;-61
2023/01/24 07:18:13;;;;;;;5.70;4.78;;;;;;;;;;5077528;28;20302;-62
2023/01/24 07:20:41;;;;;;;5.88;5.07;;;;;;;;;;5077825;28;20196;-63
2023/01/24 07:23:14;;;;;;;6.05;4.72;;;;;;;;;;5076736;28;20283;-61
2023/01/24 07:25:42;;;;;;;5.55;5.00;;;;;;;;;;5077139;28;20311;-62
2023/01/24 07:28:11;;;;;;;5.75;5.25;;;;;;;;;;5076920;28;20243;-62
2023/01/24 07:30:41;;;;;;;6.45;4.72;;;;;;;;;;5077248;28;20279;-62
2023/01/24 07:33:09;;;;;;;6.15;5.18;;;;;;;;;;5077149;28;20222;-62
2023/01/24 07:35:38;;;;;;;7.43;5.18;;;;;;;;;;5076162;28;20228;-62
2023/01/24 07:38:05;;;;;;;6.05;4.88;;;;;;;;;;5076061;28;20287;-62
2023/01/24 07:40:33;;;;;;;5.43;4.45;;;;;;;;;;5076292;28;20299;-62
2023/01/24 07:43:01;;;;;;;5.30;4.80;;;;;;;;;;5076396;28;20204;-62
2023/01/24 07:45:30;;;;;;;4.93;4.45;;;;;;;;;;5077561;28;20200;-62
2023/01/24 07:47:57;;;;;;;4.60;4.20;;;;;;;;;;5076587;28;20215;-63
2023/01/24 07:50:25;;;;;;;6.22;4.78;;;;;;;;;;5077059;28;20210;-62
2023/01/24 07:52:52;;;;;;;4.55;4.15;;;;;;;;;;5076770;28;20196;-62
2023/01/24 07:55:20;;;;;;;4.85;4.40;;;;;;;;;;5076688;28;20323;-62
2023/01/24 07:57:47;;;;;;;4.72;4.22;;;;;;;;;;5076736;28;20236;-62
2023/01/24 08:00:15;;;;;;;5.95;4.78;;;;;;;;;;5076938;28;20652;-62
2023/01/24 08:02:44;;;;;;;4.53;4.13;;;;;;;;;;5076636;28;20200;-62
2023/01/24 08:05:12;;;;;;;4.88;4.18;;;;;;;;;;5076430;28;20202;-62
2023/01/24 08:07:39;;;;;;;4.88;4.20;;;;;;;;;;5077189;28;20204;-62
2023/01/24 08:10:08;;;;;;;4.85;4.30;;;;;;;;;;5076388;28;20204;-62
2023/01/24 08:12:35;;;;;;;4.70;4.20;;;;;;;;;;5076154;28;20627;-63
2023/01/24 08:15:02;;;;;;;5.10;4.43;;;;;;;;;;5076128;28;20616;-63
2023/01/24 08:17:30;;;;;;;4.85;4.22;;;;;;;;;;5076456;28;20204;-62
2023/01/24 08:19:59;;;;;;;5.00;4.40;;;;;;;;;;5075600;28;20200;-62
2023/01/24 08:22:26;;;;;;;4.47;4.07;;;;;;;;;;5076252;28;20251;-61
2023/01/24 08:24:53;;;;;;;4.45;4.05;;;;;;;;;;5076262;28;20445;-62
2023/01/24 08:27:21;;;;;;;4.28;3.88;;;;;;;;;;5075572;28;20207;-62
2023/01/24 08:29:48;;;;;;;4.53;4.13;;;;;;;;;;5076172;28;20510;-62
2023/01/24 08:32:16;;;;;;;5.10;4.60;;;;;;;;;;5076374;28;20268;-62
2023/01/24 08:34:43;;;;;;;4.60;3.80;;;;;;;;;;5075068;28;20288;-61
2023/01/24 08:37:12;;;;;;;4.63;3.97;;;;;;;;;;5076488;28;20239;-63
2023/01/24 08:39:39;;;;;;;4.72;4.13;;;;;;;;;;5075334;28;20299;-62
2023/01/24 08:42:07;;;;;;;5.00;4.05;;;;;;;;;;5075230;28;20203;-62
2023/01/24 08:44:34;;;;;;;4.03;3.63;;;;;;;;;;5067220;28;20315;-62
2023/01/24 08:47:02;;;;;;;4.25;3.85;;;;;;;;;;5075394;28;20648;-62
2023/01/24 08:49:29;;;;;;;5.05;3.88;;;;;;;;;;5074904;28;20240;-61
2023/01/24 08:51:59;;;;;;;3.40;3.10;;;;;;;;;;5075345;28;20286;-64
2023/01/24 08:54:28;;;;;;;4.22;3.83;;;;;;;;;;5075625;28;20204;-62
2023/01/24 08:56:56;;;;;;;3.90;3.50;;;;;;;;;;5072708;28;20264;-63
2023/01/24 08:59:23;;;;;;;3.63;3.33;;;;;;;;;;5071041;28;20226;-62
2023/01/24 09:01:51;;;;;;;3.72;3.42;;;;;;;;;;5075535;28;20302;-62
2023/01/24 09:04:18;;;;;;;3.92;3.50;;;;;;;;;;5075659;28;20202;-62
2023/01/24 09:06:46;;;;;;;3.70;3.30;;;;;;;;;;5074344;28;20294;-62
2023/01/24 09:09:13;;;;;;;3.90;3.50;;;;;;;;;;5073716;28;20247;-62
2023/01/24 09:11:42;;;;;;;3.60;3.30;;;;;;;;;;5072509;28;20490;-62
2023/01/24 09:14:09;;;;;;;4.15;3.65;;;;;;;;;;5092366;28;20195;-62
2023/01/24 09:16:37;;;;;;;3.65;3.35;;;;;;;;;;5094353;28;20224;-62
2023/01/24 09:19:04;;;;;;;3.58;3.22;;;;;;;;;;5092851;28;20234;-62
2023/01/24 09:21:32;;;;;;;3.70;3.38;;;;;;;;;;5093751;28;20196;-62
2023/01/24 09:24:00;;;;;;;3.75;3.38;;;;;;;;;;5093013;28;20272;-62
2023/01/24 09:26:27;;;;;;;3.08;2.85;;;;;;;;;;5094317;28;20504;-62
2023/01/24 09:28:56;;;;;;;3.95;3.10;;;;;;;;;;5093942;28;20266;-62
2023/01/24 09:31:23;;;;;;;3.13;2.83;;;;;;;;;;5073397;28;20639;-62
2023/01/24 09:33:51;;;;;;;3.55;3.25;;;;;;;;;;5073734;28;20238;-62
2023/01/24 09:36:18;;;;;;;3.30;3.00;;;;;;;;;;5072171;28;20410;-62
2023/01/24 09:38:46;;;;;;;3.22;2.92;;;;;;;;;;5072949;28;20208;-62
2023/01/24 09:41:18;;;;;;;2.90;2.70;;;;;;;;;;5074474;28;20210;-63
2023/01/24 09:43:47;;;;;;;3.85;3.30;;;;;;;;;;5073871;28;20679;-62
2023/01/24 09:46:18;;;;;;;3.15;2.85;;;;;;;;;;5074641;28;20208;-62
2023/01/24 09:48:46;;;;;;;4.20;3.38;;;;;;;;;;5078347;28;20196;-62
2023/01/24 09:51:17;;;;;;;3.28;2.97;;;;;;;;;;5077709;28;20564;-62
2023/01/24 09:53:47;;;;;;;4.03;3.20;;;;;;;;;;5077035;28;20200;-62
2023/01/24 09:56:26;;;;;;;3.95;3.10;;;;;;;;;;5076429;28;20223;-62
2023/01/24 09:58:59;;;;;;;3.55;3.22;;;;;;;;;;5077743;28;20600;-62
2023/01/24 10:01:28;;;;;;;3.38;3.08;;;;;;;;;;5076470;28;20655;-62
2023/01/24 10:03:56;;;;;;;3.05;2.75;;;;;;;;;;5077505;28;20196;-62
2023/01/24 10:06:25;;;;;;;3.45;3.15;;;;;;;;;;5076973;28;20261;-62
2023/01/24 10:08:56;;;;;;;3.38;3.03;;;;;;;;;;5077473;28;20295;-62
2023/01/24 10:11:30;;;;;;;4.05;3.00;;;;;;;;;;5077078;28;20204;-63
2023/01/24 10:14:12;;;;;;;3.40;3.10;;;;;;;;;;5077637;28;20214;-62
2023/01/24 10:17:05;;;;;;;3.55;3.25;;;;;;;;;;5075848;28;20311;-62
2023/01/24 10:19:49;;;;;;;3.20;2.90;;;;;;;;;;5078232;28;20240;-62
2023/01/24 10:22:25;;;;;;;3.30;3.00;;;;;;;;;;5078325;28;20310;-62
2023/01/24 10:24:56;;;;;;;3.40;3.10;;;;;;;;;;5077655;28;20334;-62
2023/01/24 10:27:27;;;;;;;3.50;3.20;;;;;;;;;;5077900;28;20210;-61
2023/01/24 10:29:56;;;;;;;3.50;3.20;;;;;;;;;;5076703;28;20246;-63
2023/01/24 10:32:30;;;;;;;3.67;3.15;;;;;;;;;;5077053;28;20291;-62
2023/01/24 10:34:59;;;;;;;4.15;3.40;;;;;;;;;;5077778;28;20577;-62
2023/01/24 10:37:27;;;;;;;3.80;3.50;;;;;;;;;;5077999;28;20228;-62
2023/01/24 10:39:55;;;;;;;3.55;3.10;;;;;;;;;;5078031;28;20210;-62
2023/01/24 10:42:24;;;;;;;3.67;3.38;;;;;;;;;;5077259;28;20203;-62
2023/01/24 10:44:53;;;;;;;3.40;3.10;;;;;;;;;;5077008;28;20208;-62
2023/01/24 10:47:40;;;;;;;3.50;3.20;;;;;;;;;;5077490;28;20207;-62
2023/01/24 10:50:08;;;;;;;4.15;3.63;;;;;;;;;;5077011;28;20227;-62
2023/01/24 10:52:36;;;;;;;3.83;3.53;;;;;;;;;;5077290;28;20200;-62
2023/01/24 10:55:05;;;;;;;4.03;3.70;;;;;;;;;;5076455;28;20215;-62
2023/01/24 10:57:38;;;;;;;3.50;3.20;;;;;;;;;;5076047;28;20285;-62
2023/01/24 11:00:08;;;;;;;4.15;3.75;;;;;;;;;;5078280;28;20211;-62
2023/01/24 11:02:37;;;;;;;3.67;3.28;;;;;;;;;;5077832;28;20287;-62
2023/01/24 11:05:05;;;;;;;3.97;3.58;;;;;;;;;;5075770;28;20556;-62
2023/01/24 11:07:38;;;;;;;3.60;3.30;;;;;;;;;;5076828;28;20291;-62
2023/01/24 11:10:10;;;;;;;3.83;3.42;;;;;;;;;;5076411;28;20307;-62
2023/01/24 11:12:38;;;;;;;3.83;3.50;;;;;;;;;;5077023;28;20200;-62
2023/01/24 11:15:06;;;;;;;3.80;3.47;;;;;;;;;;5075754;28;20289;-62
2023/01/24 11:17:36;;;;;;;3.88;3.58;;;;;;;;;;5076994;28;20224;-63
2023/01/24 11:20:17;;;;;;;3.83;3.53;;;;;;;;;;5089784;28;20204;-61
2023/01/24 11:22:44;;;;;;;4.65;4.25;;;;;;;;;;5096848;28;20199;-61
2023/01/24 11:25:15;;;;;;;9.60;8.70;;;;;;;;;;5096044;28;20294;-62
2023/01/24 11:27:46;;;;;;;8.38;7.57;;;;;;;;;;5095555;28;20282;-61
2023/01/24 11:30:17;;;;;;;7.15;6.55;;;;;;;;;;5091117;28;20263;-62
2023/01/24 11:32:50;;;;;;;8.52;7.78;;;;;;;;;;5096747;28;20654;-62
2023/01/24 11:35:24;;;;;;;8.70;7.90;;;;;;;;;;5095775;28;20199;-62
2023/01/24 11:38:10;;;;;;;8.45;7.72;;;;;;;;;;5096636;28;20211;-62
2023/01/24 11:40:40;;;;;;;7.65;6.95;;;;;;;;;;5095842;28;20195;-62
2023/01/24 11:43:16;;;;;;;8.10;7.40;;;;;;;;;;5095679;28;20203;-62
2023/01/24 11:45:53;;;;;;;7.65;6.85;;;;;;;;;;5096136;28;20301;-63
2023/01/24 11:48:21;;;;;;;7.30;6.60;;;;;;;;;;5096022;28;20583;-61
2023/01/24 11:50:59;;;;;;;6.82;6.22;;;;;;;;;;5096251;28;20218;-62
2023/01/24 11:53:33;;;;;;;7.22;6.57;;;;;;;;;;5095525;28;20191;-62
2023/01/24 11:56:03;;;;;;;7.00;6.40;;;;;;;;;;5095750;28;20226;-63
2023/01/24 11:58:40;;;;;;;6.55;5.97;;;;;;;;;;5096355;28;20204;-62
2023/01/24 12:01:11;;;;;;;6.00;5.50;;;;;;;;;;5096077;28;20204;-62
2023/01/24 12:04:08;;;;;;;6.30;5.80;;;;;;;;;;5096207;28;20283;-61
2023/01/24 12:06:43;;;;;;;6.32;5.82;;;;;;;;;;5033528;28;20205;-66
2023/01/24 12:09:16;;;;;;;6.22;5.63;;;;;;;;;;5083534;28;20205;-62
2023/01/24 12:11:45;;;;;;;6.15;5.63;;;;;;;;;;5094084;28;20239;-63
2023/01/24 12:14:22;;;;;;;6.00;5.43;;;;;;;;;;5095671;28;20282;-63
2023/01/24 12:16:55;;;;;;;6.40;5.80;;;;;;;;;;5095182;28;20326;-62
2023/01/24 12:19:41;;;;;;;5.53;5.03;;;;;;;;;;5095333;28;20214;-62
2023/01/24 12:22:15;;;;;;;5.60;5.10;;;;;;;;;;5096274;28;20302;-62
2023/01/24 12:24:43;;;;;;;5.60;5.10;;;;;;;;;;5095071;28;20204;-63
2023/01/24 12:27:15;;;;;;;5.78;5.28;;;;;;;;;;5095180;28;20654;-62
2023/01/24 12:29:45;;;;;;;5.25;4.75;;;;;;;;;;5088232;28;20236;-62
2023/01/24 12:32:15;;;;;;;5.10;4.70;;;;;;;;;;5076027;28;20255;-62
2023/01/24 12:34:45;;;;;;;5.05;4.65;;;;;;;;;;5075450;28;20287;-62
2023/01/24 12:37:22;;;;;;;5.35;4.85;;;;;;;;;;5074663;28;20224;-62
2023/01/24 12:39:53;;;;;;;5.55;5.05;;;;;;;;;;5074681;28;20314;-62
2023/01/24 12:42:23;;;;;;;5.30;4.82;;;;;;;;;;5074571;28;20196;-62
2023/01/24 12:44:54;;;;;;;5.25;4.75;;;;;;;;;;5074741;28;20291;-62
2023/01/24 12:47:25;;;;;;;5.60;5.10;;;;;;;;;;5075779;28;20310;-63
2023/01/24 12:50:00;;;;;;;5.07;4.68;;;;;;;;;;5074565;28;20683;-62
2023/01/24 12:52:31;;;;;;;5.20;4.70;;;;;;;;;;5074545;28;20298;-62
2023/01/24 12:55:02;;;;;;;5.00;4.60;;;;;;;;;;5074273;28;20204;-62
2023/01/24 12:57:32;;;;;;;5.03;4.63;;;;;;;;;;5074298;28;20228;-63
2023/01/24 13:00:00;;;;;;;5.38;4.90;;;;;;;;;;5066733;28;20212;-62
2023/01/24 13:02:45;;;;;;;5.30;4.80;;;;;;;;;;5075095;28;20212;-62
2023/01/24 13:05:31;;;;;;;4.55;4.15;;;;;;;;;;5075150;28;20210;-62
2023/01/24 13:08:04;;;;;;;4.70;4.30;;;;;;;;;;5073898;28;20208;-62
2023/01/24 13:10:39;;;;;;;4.90;4.50;;;;;;;;;;5073635;28;20206;-63
2023/01/24 13:13:07;;;;;;;4.88;4.47;;;;;;;;;;5075197;28;20203;-62
2023/01/24 13:15:41;;;;;;;5.00;4.60;;;;;;;;;;5073985;28;20196;-61
2023/01/24 13:18:15;;;;;;;4.95;4.55;;;;;;;;;;5074388;28;20228;-63
2023/01/24 13:20:57;;;;;;;4.78;4.38;;;;;;;;;;5074017;28;20302;-64
2023/01/24 13:23:39;;;;;;;4.97;4.57;;;;;;;;;;5071459;28;20204;-62
2023/01/24 13:26:24;;;;;;;4.95;4.55;;;;;;;;;;5051390;28;20291;-62
2023/01/24 13:28:57;;;;;;;4.90;4.50;;;;;;;;;;5054470;28;20287;-62
2023/01/24 13:31:30;;;;;;;4.85;4.45;;;;;;;;;;5073715;28;20301;-62
2023/01/24 13:33:59;;;;;;;4.68;4.28;;;;;;;;;;5076800;28;20494;-62
2023/01/24 13:36:28;;;;;;;4.85;4.38;;;;;;;;;;5093589;28;20227;-62
2023/01/24 13:38:56;;;;;;;4.75;4.35;;;;;;;;;;5093981;28;20200;-62
2023/01/24 13:41:37;;;;;;;4.40;4.00;;;;;;;;;;5094925;28;20234;-62
2023/01/24 13:44:05;;;;;;;4.53;4.15;;;;;;;;;;5093851;28;20811;-63
2023/01/24 13:46:51;;;;;;;4.57;4.18;;;;;;;;;;5094904;28;20286;-63
2023/01/24 13:49:19;;;;;;;4.72;4.32;;;;;;;;;;5091955;28;20203;-63
2023/01/24 13:51:48;;;;;;;4.80;4.40;;;;;;;;;;5093847;28;20210;-62
2023/01/24 13:54:18;;;;;;;4.47;4.07;;;;;;;;;;5093519;28;20564;-63
2023/01/24 13:57:05;;;;;;;4.55;4.15;;;;;;;;;;5093537;28;20238;-63
2023/01/24 13:59:36;;;;;;;4.78;4.32;;;;;;;;;;5087134;28;20482;-63
2023/01/24 14:02:04;;;;;;;4.95;4.55;;;;;;;;;;5093928;28;20210;-62
2023/01/24 14:04:40;;;;;;;4.22;3.83;;;;;;;;;;5093051;28;20206;-62
2023/01/24 14:07:18;;;;;;;4.55;4.15;;;;;;;;;;5093128;28;20210;-63
2023/01/24 14:09:46;;;;;;;4.60;4.20;;;;;;;;;;5093156;28;20235;-62
2023/01/24 14:12:19;;;;;;;4.63;4.22;;;;;;;;;;5092992;28;20306;-62
2023/01/24 14:15:07;;;;;;;4.53;4.13;;;;;;;;;;5092842;28;20602;-62
2023/01/24 14:17:49;;;;;;;4.65;4.25;;;;;;;;;;5087862;28;20220;-62
2023/01/24 14:20:24;;;;;;;4.80;4.40;;;;;;;;;;5093694;28;20203;-63
2023/01/24 14:22:55;;;;;;;5.13;4.57;;;;;;;;;;5094129;28;20298;-62
2023/01/24 14:25:37;;;;;;;4.88;4.47;;;;;;;;;;5093937;28;20211;-63
2023/01/24 14:28:13;;;;;;;5.07;4.57;;;;;;;;;;5091630;28;20218;-63
2023/01/24 14:30:44;;;;;;;4.88;4.47;;;;;;;;;;5093480;28;20263;-63
2023/01/24 14:33:22;;;;;;;4.63;4.22;;;;;;;;;;5094549;28;20214;-62
2023/01/24 14:36:13;;;;;;;4.97;4.47;;;;;;;;;;5097344;28;20203;-62
2023/01/24 14:38:40;;;;;;;4.30;3.90;;;;;;;;;;5077149;28;20570;-62
2023/01/24 14:41:19;;;;;;;4.75;4.35;;;;;;;;;;5097758;28;20207;-62
2023/01/24 14:43:47;;;;;;;4.88;4.40;;;;;;;;;;5076582;28;20272;-62
2023/01/24 14:46:18;;;;;;;4.78;4.38;;;;;;;;;;5077339;28;20294;-63
2023/01/24 14:48:47;;;;;;;4.80;4.28;;;;;;;;;;5077500;28;20635;-62
2023/01/24 14:51:17;;;;;;;4.65;4.25;;;;;;;;;;5076772;28;20606;-62
2023/01/24 14:53:48;;;;;;;4.40;4.00;;;;;;;;;;5075882;28;20204;-62
2023/01/24 14:56:16;;;;;;;4.40;4.00;;;;;;;;;;5076746;28;20208;-63
2023/01/24 14:58:43;;;;;;;5.15;4.75;;;;;;;;;;5076462;28;20228;-62
2023/01/24 15:01:33;;;;;;;4.95;4.55;;;;;;;;;;5076511;28;20294;-63
2023/01/24 15:04:04;;;;;;;5.07;4.57;;;;;;;;;;5076342;28;20236;-62
2023/01/24 15:06:32;;;;;;;4.50;4.10;;;;;;;;;;5076707;28;20208;-62
2023/01/24 15:09:01;;;;;;;4.65;4.25;;;;;;;;;;5076944;28;20196;-63
2023/01/24 15:11:30;;;;;;;4.70;4.30;;;;;;;;;;5075362;28;20205;-62
2023/01/24 15:13:58;;;;;;;4.65;4.25;;;;;;;;;;5095662;28;20200;-62
2023/01/24 15:16:29;;;;;;;4.93;4.53;;;;;;;;;;5096963;28;20207;-62
2023/01/24 15:19:02;;;;;;;5.03;4.50;;;;;;;;;;5096410;28;20226;-62
2023/01/24 15:21:36;;;;;;;4.63;4.22;;;;;;;;;;5096614;28;20203;-62
2023/01/24 15:24:04;;;;;;;4.88;4.40;;;;;;;;;;5096068;28;20493;-62
2023/01/24 15:26:37;;;;;;;4.40;4.00;;;;;;;;;;5095780;28;20298;-62
2023/01/24 15:29:23;;;;;;;4.80;4.40;;;;;;;;;;5095915;28;20575;-62
2023/01/24 15:31:51;;;;;;;4.80;4.40;;;;;;;;;;5096305;28;20192;-62
2023/01/24 15:34:20;;;;;;;4.13;3.80;;;;;;;;;;5096771;28;20498;-62